Time,TemperatureF,DewpointF,PressureIn,WindDirection,WindDirectionDegrees,WindSpeedMPH,WindSpeedGustMPH,Humidity,HourlyPrecipIn,Conditions,Clouds,dailyrainin,SolarRadiationWatts/m^2,SoftwareType,DateUTC
2013-03-11 00:02:00,46.0,16.0,-100.00,West,276,15.0,17.0,29,0.00,,,0.00,0.000000,,2013-03-11 06:02:00,
2013-03-11 00:11:00,46.0,16.0,-100.00,West,276,15.0,17.0,29,0.00,,,0.00,0.000000,,2013-03-11 06:11:00,
2013-03-11 00:21:00,46.0,16.0,-100.00,West,276,15.0,17.0,29,0.00,,,0.00,0.000000,,2013-03-11 06:21:00,
2013-03-11 00:42:00,44.0,18.0,-100.00,West,270,16.0,23.0,35,0.00,,,0.00,0.000000,,2013-03-11 06:42:00,
2013-03-11 00:53:00,44.0,18.0,-100.00,West,270,16.0,23.0,35,0.00,,,0.00,0.000000,,2013-03-11 06:53:00,
2013-03-11 01:02:00,44.0,18.0,-100.00,West,270,16.0,23.0,35,0.00,,,0.00,0.000000,,2013-03-11 07:02:00,
2013-03-11 01:12:00,44.0,18.0,-100.00,West,270,16.0,23.0,35,0.00,,,0.00,0.000000,,2013-03-11 07:12:00,
2013-03-11 01:21:00,44.0,18.0,-100.00,West,270,16.0,23.0,35,0.00,,,0.00,0.000000,,2013-03-11 07:21:00,
2013-03-11 01:42:00,43.0,19.0,-100.00,West,274,14.0,28.0,38,0.00,,,0.00,0.000000,,2013-03-11 07:42:00,
2013-03-11 01:52:00,43.0,19.0,-100.00,West,274,14.0,28.0,38,0.00,,,0.00,0.000000,,2013-03-11 07:52:00,
2013-03-11 02:02:00,43.0,19.0,-100.00,West,274,14.0,28.0,38,0.00,,,0.00,0.000000,,2013-03-11 08:02:00,
2013-03-11 02:12:00,43.0,19.0,-100.00,West,274,14.0,28.0,38,0.00,,,0.00,0.000000,,2013-03-11 08:12:00,
2013-03-11 02:21:00,43.0,19.0,-100.00,West,274,14.0,28.0,38,0.00,,,0.00,0.000000,,2013-03-11 08:21:00,
2013-03-11 02:42:00,42.0,25.0,-100.00,WNW,289,15.0,23.0,51,0.00,,,0.00,0.000000,,2013-03-11 08:42:00,
2013-03-11 02:52:00,42.0,25.0,-100.00,WNW,289,15.0,23.0,51,0.00,,,0.00,0.000000,,2013-03-11 08:52:00,
2013-03-11 03:02:00,42.0,25.0,-100.00,WNW,289,15.0,23.0,51,0.00,,,0.00,0.000000,,2013-03-11 09:02:00,
2013-03-11 03:12:00,42.0,25.0,-100.00,WNW,289,15.0,23.0,51,0.00,,,0.00,0.000000,,2013-03-11 09:12:00,
2013-03-11 03:21:00,42.0,25.0,-100.00,WNW,289,15.0,23.0,51,0.00,,,0.00,0.000000,,2013-03-11 09:21:00,
2013-03-11 03:42:00,40.0,26.0,-100.00,WNW,297,25.0,25.0,56,0.00,,,0.00,0.000000,,2013-03-11 09:42:00,
2013-03-11 03:52:00,40.0,26.0,-100.00,WNW,297,25.0,25.0,56,0.00,,,0.00,0.000000,,2013-03-11 09:52:00,
2013-03-11 04:02:00,40.0,26.0,-100.00,WNW,297,25.0,25.0,56,0.00,,,0.00,0.000000,,2013-03-11 10:02:00,
2013-03-11 04:12:00,40.0,26.0,-100.00,WNW,297,25.0,25.0,56,0.00,,,0.00,0.000000,,2013-03-11 10:12:00,
2013-03-11 04:21:00,40.0,26.0,-100.00,WNW,297,25.0,25.0,56,0.00,,,0.00,0.000000,,2013-03-11 10:21:00,
2013-03-11 04:42:00,40.0,27.0,-100.00,North,357,5.0,41.0,59,0.00,,,0.00,0.000000,,2013-03-11 10:42:00,
2013-03-11 04:52:00,40.0,27.0,-100.00,North,357,5.0,41.0,59,0.00,,,0.00,0.000000,,2013-03-11 10:52:00,
2013-03-11 05:02:00,40.0,27.0,-100.00,North,357,5.0,41.0,59,0.00,,,0.00,0.000000,,2013-03-11 11:02:00,
2013-03-11 05:11:00,40.0,27.0,-100.00,North,357,5.0,41.0,59,0.00,,,0.00,0.000000,,2013-03-11 11:11:00,
2013-03-11 05:21:00,40.0,27.0,-100.00,North,357,5.0,41.0,59,0.00,,,0.00,0.000000,,2013-03-11 11:21:00,
2013-03-11 05:43:00,34.0,20.0,-100.00,NW,311,9.0,26.0,56,0.00,,,-99.99,0.000000,,2013-03-11 11:43:00,
2013-03-11 05:53:00,34.0,20.0,-100.00,NW,311,9.0,26.0,56,0.00,,,-99.99,0.000000,,2013-03-11 11:53:00,
2013-03-11 06:02:00,34.0,20.0,-100.00,NW,311,9.0,26.0,56,0.00,,,-99.99,0.000000,,2013-03-11 12:02:00,
2013-03-11 06:11:00,34.0,20.0,-100.00,NW,311,9.0,26.0,56,0.00,,,-99.99,0.000000,,2013-03-11 12:11:00,
2013-03-11 06:21:00,34.0,20.0,-100.00,NW,311,9.0,26.0,56,0.00,,,-99.99,0.000000,,2013-03-11 12:21:00,
2013-03-11 06:43:00,35.0,14.0,-100.00,WNW,291,17.0,17.0,41,0.00,,,-99.99,0.000000,,2013-03-11 12:43:00,
2013-03-11 06:53:00,35.0,14.0,-100.00,WNW,291,17.0,17.0,41,0.00,,,-99.99,0.000000,,2013-03-11 12:53:00,
2013-03-11 07:02:00,35.0,14.0,-100.00,WNW,291,17.0,17.0,41,0.00,,,-99.99,0.000000,,2013-03-11 13:02:00,
2013-03-11 07:12:00,35.0,14.0,-100.00,WNW,291,17.0,17.0,41,0.00,,,-99.99,0.000000,,2013-03-11 13:12:00,
2013-03-11 07:21:00,35.0,14.0,-100.00,WNW,291,17.0,17.0,41,0.00,,,-99.99,0.000000,,2013-03-11 13:21:00,
2013-03-11 07:43:00,38.0,14.0,-100.00,WNW,303,22.0,27.0,37,0.00,,,0.00,0.000000,,2013-03-11 13:43:00,
2013-03-11 07:52:00,38.0,14.0,-100.00,WNW,303,22.0,27.0,37,0.00,,,0.00,0.000000,,2013-03-11 13:52:00,
2013-03-11 08:02:00,38.0,14.0,-100.00,WNW,303,22.0,27.0,37,0.00,,,0.00,0.000000,,2013-03-11 14:02:00,
2013-03-11 08:12:00,38.0,14.0,-100.00,WNW,303,22.0,27.0,37,0.00,,,0.00,0.000000,,2013-03-11 14:12:00,
2013-03-11 08:21:00,38.0,14.0,-100.00,WNW,303,22.0,27.0,37,0.00,,,0.00,0.000000,,2013-03-11 14:21:00,
2013-03-11 08:43:00,40.0,16.0,-100.00,WNW,298,20.0,31.0,37,0.00,,,0.00,0.000000,,2013-03-11 14:43:00,
2013-03-11 08:53:00,40.0,16.0,-100.00,WNW,298,20.0,31.0,37,0.00,,,0.00,0.000000,,2013-03-11 14:53:00,
2013-03-11 09:02:00,40.0,16.0,-100.00,WNW,298,20.0,31.0,37,0.00,,,0.00,0.000000,,2013-03-11 15:02:00,
2013-03-11 09:12:00,40.0,16.0,-100.00,WNW,298,20.0,31.0,37,0.00,,,0.00,0.000000,,2013-03-11 15:12:00,
2013-03-11 09:21:00,40.0,16.0,-100.00,WNW,298,20.0,31.0,37,0.00,,,0.00,0.000000,,2013-03-11 15:21:00,
2013-03-11 09:43:00,41.0,17.0,-100.00,NW,311,20.0,31.0,37,0.00,,,0.00,41.000000,,2013-03-11 15:43:00,
2013-03-11 09:53:00,41.0,17.0,-100.00,NW,311,20.0,31.0,37,0.00,,,0.00,41.000000,,2013-03-11 15:53:00,
2013-03-11 10:12:00,41.0,17.0,-100.00,NW,311,20.0,31.0,37,0.00,,,0.00,41.000000,,2013-03-11 16:12:00,
2013-03-11 10:21:00,41.0,17.0,-100.00,NW,311,20.0,31.0,37,0.00,,,0.00,41.000000,,2013-03-11 16:21:00,
2013-03-11 10:22:00,41.0,15.0,-100.00,NNW,329,18.0,33.0,35,0.00,,,0.00,126.000000,,2013-03-11 16:22:00,
2013-03-11 10:43:00,41.0,15.0,-100.00,NNW,329,18.0,33.0,35,0.00,,,0.00,126.000000,,2013-03-11 16:43:00,
2013-03-11 10:52:00,41.0,15.0,-100.00,NNW,329,18.0,33.0,35,0.00,,,0.00,126.000000,,2013-03-11 16:52:00,
2013-03-11 11:02:00,41.0,15.0,-100.00,NNW,329,18.0,33.0,35,0.00,,,0.00,126.000000,,2013-03-11 17:02:00,
2013-03-11 11:13:00,41.0,15.0,-100.00,NNW,329,18.0,33.0,35,0.00,,,0.00,126.000000,,2013-03-11 17:13:00,
2013-03-11 11:42:00,42.0,7.0,-100.00,WNW,297,30.0,35.0,23,0.00,,,0.00,289.000000,,2013-03-11 17:42:00,
2013-03-11 11:53:00,42.0,7.0,-100.00,WNW,297,30.0,35.0,23,0.00,,,0.00,289.000000,,2013-03-11 17:53:00,
2013-03-11 12:02:00,42.0,7.0,-100.00,WNW,297,30.0,35.0,23,0.00,,,0.00,289.000000,,2013-03-11 18:02:00,
2013-03-11 12:11:00,42.0,7.0,-100.00,WNW,297,30.0,35.0,23,0.00,,,0.00,289.000000,,2013-03-11 18:11:00,
2013-03-11 12:21:00,42.0,7.0,-100.00,WNW,297,30.0,35.0,23,0.00,,,0.00,289.000000,,2013-03-11 18:21:00,
2013-03-11 12:53:00,46.0,25.0,-100.00,NNW,337,22.0,42.0,43,0.00,,,0.00,555.000000,,2013-03-11 18:53:00,
2013-03-11 13:43:00,42.0,10.0,-100.00,WNW,292,22.0,35.0,27,0.00,,,0.00,466.000000,,2013-03-11 19:43:00,
2013-03-11 13:52:00,42.0,10.0,-100.00,WNW,292,22.0,35.0,27,0.00,,,0.00,466.000000,,2013-03-11 19:52:00,
2013-03-11 14:02:00,42.0,10.0,-100.00,WNW,292,22.0,35.0,27,0.00,,,0.00,466.000000,,2013-03-11 20:02:00,
2013-03-11 14:11:00,42.0,10.0,-100.00,WNW,292,22.0,35.0,27,0.00,,,0.00,466.000000,,2013-03-11 20:11:00,
2013-03-11 14:21:00,42.0,10.0,-100.00,WNW,292,22.0,35.0,27,0.00,,,0.00,466.000000,,2013-03-11 20:21:00,
2013-03-11 14:44:00,44.0,10.0,-100.00,NW,305,23.0,39.0,24,0.00,,,0.00,651.000000,,2013-03-11 20:44:00,
2013-03-11 14:53:00,44.0,10.0,-100.00,NW,305,23.0,39.0,24,0.00,,,0.00,651.000000,,2013-03-11 20:53:00,
2013-03-11 15:02:00,44.0,10.0,-100.00,NW,305,23.0,39.0,24,0.00,,,0.00,651.000000,,2013-03-11 21:02:00,
2013-03-11 15:12:00,44.0,10.0,-100.00,NW,305,23.0,39.0,24,0.00,,,0.00,651.000000,,2013-03-11 21:12:00,
2013-03-11 15:21:00,44.0,10.0,-100.00,NW,305,23.0,39.0,24,0.00,,,0.00,651.000000,,2013-03-11 21:21:00,
2013-03-11 15:44:00,45.0,9.0,-100.00,NW,304,20.0,40.0,23,0.00,,,0.00,881.000000,,2013-03-11 21:44:00,
2013-03-11 15:53:00,45.0,9.0,-100.00,NW,304,20.0,40.0,23,0.00,,,0.00,881.000000,,2013-03-11 21:53:00,
2013-03-11 16:02:00,45.0,9.0,-100.00,NW,304,20.0,40.0,23,0.00,,,0.00,881.000000,,2013-03-11 22:02:00,
2013-03-11 16:12:00,45.0,9.0,-100.00,NW,304,20.0,40.0,23,0.00,,,0.00,881.000000,,2013-03-11 22:12:00,
2013-03-11 16:21:00,45.0,9.0,-100.00,NW,304,20.0,40.0,23,0.00,,,0.00,881.000000,,2013-03-11 22:21:00,
2013-03-11 16:43:00,42.0,24.0,-100.00,NNE,17,18.0,38.0,49,0.00,,,0.00,679.000000,,2013-03-11 22:43:00,
2013-03-11 16:53:00,42.0,24.0,-100.00,NNE,17,18.0,38.0,49,0.00,,,0.00,679.000000,,2013-03-11 22:53:00,
2013-03-11 17:22:00,36.0,21.0,-100.00,NE,34,15.0,33.0,55,0.00,,,0.00,259.000000,,2013-03-11 23:22:00,
2013-03-11 17:43:00,36.0,21.0,-100.00,NE,34,15.0,33.0,55,0.00,,,0.00,259.000000,,2013-03-11 23:43:00,
2013-03-11 17:53:00,36.0,21.0,-100.00,NE,34,15.0,33.0,55,0.00,,,0.00,259.000000,,2013-03-11 23:53:00,
2013-03-11 18:02:00,36.0,21.0,-100.00,NE,34,15.0,33.0,55,0.00,,,0.00,259.000000,,2013-03-12 00:02:00,
2013-03-11 18:12:00,36.0,21.0,-100.00,NE,34,15.0,33.0,55,0.00,,,0.00,259.000000,,2013-03-12 00:12:00,
2013-03-11 18:43:00,33.0,17.0,-100.00,NNE,20,13.0,23.0,51,0.00,,,0.00,180.000000,,2013-03-12 00:43:00,
2013-03-11 18:53:00,33.0,17.0,-100.00,NNE,20,13.0,23.0,51,0.00,,,0.00,180.000000,,2013-03-12 00:53:00,
2013-03-11 19:02:00,33.0,17.0,-100.00,NNE,20,13.0,23.0,51,0.00,,,0.00,180.000000,,2013-03-12 01:02:00,
2013-03-11 19:11:00,33.0,17.0,-100.00,NNE,20,13.0,23.0,51,0.00,,,0.00,180.000000,,2013-03-12 01:11:00,
2013-03-11 19:21:00,33.0,17.0,-100.00,NNE,20,13.0,23.0,51,0.00,,,0.00,180.000000,,2013-03-12 01:21:00,
2013-03-11 19:42:00,31.0,16.0,-100.00,North,6,10.0,20.0,53,0.00,,,0.00,82.000000,,2013-03-12 01:42:00,
2013-03-11 19:52:00,31.0,16.0,-100.00,North,6,10.0,20.0,53,0.00,,,0.00,82.000000,,2013-03-12 01:52:00,
2013-03-11 20:02:00,31.0,16.0,-100.00,North,6,10.0,20.0,53,0.00,,,0.00,82.000000,,2013-03-12 02:02:00,
2013-03-11 20:12:00,31.0,16.0,-100.00,North,6,10.0,20.0,53,0.00,,,0.00,82.000000,,2013-03-12 02:12:00,
2013-03-11 20:21:00,31.0,16.0,-100.00,North,6,10.0,20.0,53,0.00,,,0.00,82.000000,,2013-03-12 02:21:00,
2013-03-11 20:43:00,29.0,15.0,-100.00,NNE,13,7.0,19.0,55,0.00,,,0.00,26.000000,,2013-03-12 02:43:00,
2013-03-11 20:52:00,29.0,15.0,-100.00,NNE,13,7.0,19.0,55,0.00,,,0.00,26.000000,,2013-03-12 02:52:00,
2013-03-11 21:02:00,29.0,15.0,-100.00,NNE,13,7.0,19.0,55,0.00,,,0.00,26.000000,,2013-03-12 03:02:00,
2013-03-11 21:12:00,29.0,15.0,-100.00,NNE,13,7.0,19.0,55,0.00,,,0.00,26.000000,,2013-03-12 03:12:00,
2013-03-11 21:21:00,29.0,15.0,-100.00,NNE,13,7.0,19.0,55,0.00,,,0.00,26.000000,,2013-03-12 03:21:00,
2013-03-11 21:22:00,27.0,15.0,-100.00,NNW,334,5.0,15.0,59,0.00,,,0.00,0.000000,,2013-03-12 03:22:00,
2013-03-11 21:42:00,27.0,15.0,-100.00,NNW,334,5.0,15.0,59,0.00,,,0.00,0.000000,,2013-03-12 03:42:00,
2013-03-11 21:52:00,27.0,15.0,-100.00,NNW,334,5.0,15.0,59,0.00,,,0.00,0.000000,,2013-03-12 03:52:00,
2013-03-11 22:02:00,27.0,15.0,-100.00,NNW,334,5.0,15.0,59,0.00,,,0.00,0.000000,,2013-03-12 04:02:00,
2013-03-11 22:12:00,27.0,15.0,-100.00,NNW,334,5.0,15.0,59,0.00,,,0.00,0.000000,,2013-03-12 04:12:00,
2013-03-11 22:43:00,26.0,15.0,-100.00,WNW,292,4.0,11.0,63,0.00,,,0.00,0.000000,,2013-03-12 04:43:00,
2013-03-11 22:52:00,26.0,15.0,-100.00,WNW,292,4.0,11.0,63,0.00,,,0.00,0.000000,,2013-03-12 04:52:00,
2013-03-11 23:02:00,26.0,15.0,-100.00,WNW,292,4.0,11.0,63,0.00,,,0.00,0.000000,,2013-03-12 05:02:00,
2013-03-11 23:12:00,26.0,15.0,-100.00,WNW,292,4.0,11.0,63,0.00,,,0.00,0.000000,,2013-03-12 05:12:00,
2013-03-11 23:21:00,26.0,15.0,-100.00,WNW,292,4.0,11.0,63,0.00,,,0.00,0.000000,,2013-03-12 05:21:00,
2013-03-11 23:42:00,25.0,15.0,-100.00,NW,308,4.0,10.0,64,0.00,,,0.00,0.000000,,2013-03-12 05:42:00,
2013-03-11 23:52:00,25.0,15.0,-100.00,NW,308,4.0,10.0,64,0.00,,,0.00,0.000000,,2013-03-12 05:52:00,